KSGR

Sugar Land Regional Airport

Houston, Texas, USA
METAR KSGR 170311Z AUTO 36009KT 10SM OVC010 14/13 A3014 RMK AO2 T01440128
Observed Flight Rules
Oct-17 @ 03:11 UTC (33 minutes ago) Marginal Visual Flight Rules
Wind Visibility Clouds
360° at 9 knots 10 miles
  • Overcast at 1,000' AGL
Temperatures Readings
Current 14°C / 57°F
Dewpoint 13°C / 55°F
Humidity 94%
Altimeter 30.14" Hg
Pressure 1021 hPa
Elevation 2
METAR KSGR 170311Z AUTO 36009KT 10SM OVC010 14/13 A3014 RMK AO2 T01440128
Observed Flight Rules
Oct-17 @ 03:11 UTC
(33 minutes ago)
MVFR
Wind Visibility
360° at 9 knots 10 miles
Clouds
  • Overcast at 1,000' AGL
Temperature Dewpoint
14°C / 57°F 13°C / 55°F
Humidity Altimeter Pressure
94% 30.14" Hg 1021 hPa